Private Wetterstation Sandau
Wetterdaten: Mittwoch, 27.06.2012
Datum Zeit Temp. A. Feuchte A. Luftdruck Regen Wind Richtung Richtung Taupunkt Windchill
27.06.2012 00:01 12,7 C 75 % 1019,9 hPa 0,0 l/m 3,6 km/h (1 Bft) W 270 8,4 C 12,7 C
27.06.2012 00:06 12,6 C 75 % 1019,7 hPa 0,0 l/m 2,5 km/h (1 Bft) W-SW 247 8,3 C 12,6 C
27.06.2012 00:11 12,6 C 76 % 1020,0 hPa 0,0 l/m 2,2 km/h (1 Bft) W-SW 247 8,5 C 12,6 C
27.06.2012 00:16 12,5 C 76 % 1020,0 hPa 0,0 l/m 4,3 km/h (1 Bft) W-SW 247 8,4 C 12,5 C
27.06.2012 00:21 12,4 C 76 % 1020,0 hPa 0,0 l/m 6,1 km/h (2 Bft) W-SW 247 8,3 C 12,4 C
27.06.2012 00:26 12,4 C 76 % 1019,9 hPa 0,0 l/m 6,5 km/h (2 Bft) W-SW 247 8,3 C 12,4 C
27.06.2012 00:31 12,4 C 76 % 1020,0 hPa 0,0 l/m 3,6 km/h (1 Bft) W 270 8,3 C 12,4 C
27.06.2012 00:36 12,3 C 76 % 1019,9 hPa 0,0 l/m 4,7 km/h (1 Bft) W-NW 292 8,2 C 12,3 C
27.06.2012 00:41 12,2 C 76 % 1020,0 hPa 0,0 l/m 1,8 km/h (1 Bft) W 270 8,1 C 12,2 C
27.06.2012 00:46 12,1 C 76 % 1019,8 hPa 0,0 l/m 4,7 km/h (1 Bft) SW 225 8,0 C 12,1 C
27.06.2012 00:51 12,1 C 77 % 1020,0 hPa 0,0 l/m 5,0 km/h (1 Bft) W 270 8,2 C 12,1 C
27.06.2012 00:56 12,0 C 77 % 1020,0 hPa 0,0 l/m 2,2 km/h (1 Bft) SW 225 8,1 C 12,0 C
27.06.2012 01:01 11,9 C 77 % 1020,1 hPa 0,0 l/m 3,2 km/h (1 Bft) W-NW 292 8,0 C 11,9 C
27.06.2012 01:06 11,9 C 77 % 1020,3 hPa 0,0 l/m 7,2 km/h (2 Bft) W-SW 247 8,0 C 11,9 C
27.06.2012 01:11 11,9 C 78 % 1019,9 hPa 0,0 l/m 5,0 km/h (1 Bft) W-SW 247 8,2 C 11,9 C
27.06.2012 01:16 11,8 C 78 % 1020,2 hPa 0,0 l/m 3,2 km/h (1 Bft) W-SW 247 8,1 C 11,8 C
27.06.2012 01:21 11,8 C 78 % 1020,2 hPa 0,0 l/m 3,2 km/h (1 Bft) W-SW 247 8,1 C 11,8 C
27.06.2012 01:26 11,8 C 78 % 1020,1 hPa 0,0 l/m 10,8 km/h (2 Bft) W-SW 247 8,1 C 11,8 C
27.06.2012 01:31 11,6 C 78 % 1020,2 hPa 0,0 l/m 6,8 km/h (2 Bft) W 270 7,9 C 11,6 C
27.06.2012 01:36 11,6 C 78 % 1020,1 hPa 0,0 l/m 7,2 km/h (2 Bft) W-SW 247 7,9 C 11,6 C
27.06.2012 01:41 11,6 C 79 % 1020,0 hPa 0,0 l/m 2,9 km/h (1 Bft) W 270 8,1 C 11,6 C
27.06.2012 01:46 11,5 C 79 % 1020,0 hPa 0,0 l/m 3,6 km/h (1 Bft) SW 225 8,0 C 11,5 C
27.06.2012 01:51 11,5 C 79 % 1020,1 hPa 0,0 l/m 2,9 km/h (1 Bft) W-SW 247 8,0 C 11,5 C
27.06.2012 01:56 11,4 C 79 % 1019,8 hPa 0,0 l/m 3,6 km/h (1 Bft) W-SW 247 7,9 C 11,4 C
27.06.2012 02:01 11,4 C 79 % 1019,8 hPa 0,0 l/m 3,6 km/h (1 Bft) W-NW 292 7,9 C 11,4 C
27.06.2012 02:06 11,3 C 80 % 1020,0 hPa 0,0 l/m 2,5 km/h (1 Bft) W-SW 247 8,0 C 11,3 C
27.06.2012 02:11 11,3 C 79 % 1020,0 hPa 0,0 l/m 0,0 km/h (0 Bft) W 270 7,8 C 11,3 C
27.06.2012 02:16 11,3 C 79 % 1019,8 hPa 0,0 l/m 2,5 km/h (1 Bft) W 270 7,8 C 11,3 C
27.06.2012 02:21 11,2 C 79 % 1019,9 hPa 0,0 l/m 2,2 km/h (1 Bft) W 270 7,7 C 11,2 C
27.06.2012 02:26 11,1 C 80 % 1020,0 hPa 0,0 l/m 2,5 km/h (1 Bft) W-NW 292 7,8 C 11,1 C
27.06.2012 02:31 11,1 C 80 % 1019,9 hPa 0,0 l/m 3,2 km/h (1 Bft) W-SW 247 7,8 C 11,1 C
27.06.2012 02:36 11,1 C 80 % 1019,7 hPa 0,0 l/m 6,1 km/h (2 Bft) W-SW 247 7,8 C 11,1 C
27.06.2012 02:41 11,0 C 80 % 1019,7 hPa 0,0 l/m 2,5 km/h (1 Bft) W 270 7,7 C 11,0 C
27.06.2012 02:46 11,0 C 81 % 1019,8 hPa 0,0 l/m 4,3 km/h (1 Bft) S 180 7,9 C 11,0 C
27.06.2012 02:51 11,0 C 81 % 1019,9 hPa 0,0 l/m 6,1 km/h (2 Bft) W-SW 247 7,9 C 11,0 C
27.06.2012 02:56 11,0 C 81 % 1019,8 hPa 0,0 l/m 4,0 km/h (1 Bft) W-SW 247 7,9 C 11,0 C
27.06.2012 03:01 10,9 C 81 % 1019,9 hPa 0,0 l/m 7,6 km/h (2 Bft) W-SW 247 7,8 C 10,9 C
27.06.2012 03:06 10,9 C 81 % 1019,9 hPa 0,0 l/m 5,8 km/h (2 Bft) SW 225 7,8 C 10,9 C
27.06.2012 03:11 10,9 C 81 % 1020,0 hPa 0,0 l/m 5,0 km/h (1 Bft) W-SW 247 7,8 C 10,9 C
27.06.2012 03:16 10,9 C 81 % 1019,8 hPa 0,0 l/m 6,1 km/h (2 Bft) W 270 7,8 C 10,9 C
27.06.2012 03:21 10,8 C 81 % 1019,6 hPa 0,0 l/m 4,0 km/h (1 Bft) W-SW 247 7,7 C 10,8 C
27.06.2012 03:26 10,8 C 82 % 1019,7 hPa 0,0 l/m 6,5 km/h (2 Bft) W 270 7,9 C 10,8 C
27.06.2012 03:31 10,8 C 82 % 1019,6 hPa 0,0 l/m 4,3 km/h (1 Bft) W 270 7,9 C 10,8 C
27.06.2012 03:36 10,7 C 82 % 1019,7 hPa 0,0 l/m 9,4 km/h (2 Bft) W-SW 247 7,8 C 10,7 C
27.06.2012 03:41 10,7 C 82 % 1019,6 hPa 0,0 l/m 3,2 km/h (1 Bft) W 270 7,8 C 10,7 C
27.06.2012 03:46 10,6 C 82 % 1019,7 hPa 0,0 l/m 2,9 km/h (1 Bft) W 270 7,7 C 10,6 C
27.06.2012 03:51 10,6 C 82 % 1019,7 hPa 0,0 l/m 5,8 km/h (2 Bft) W-SW 247 7,7 C 10,6 C
27.06.2012 03:56 10,6 C 82 % 1019,7 hPa 0,0 l/m 5,8 km/h (2 Bft) W-SW 247 7,7 C 10,6 C
27.06.2012 04:01 10,5 C 82 % 1019,6 hPa 0,0 l/m 6,1 km/h (2 Bft) W-SW 247 7,6 C 10,5 C
27.06.2012 04:06 10,5 C 82 % 1019,7 hPa 0,0 l/m 9,0 km/h (2 Bft) W-NW 292 7,6 C 10,5 C
27.06.2012 04:11 10,5 C 82 % 1019,6 hPa 0,0 l/m 9,0 km/h (2 Bft) W-SW 247 7,6 C 10,5 C
27.06.2012 04:16 10,4 C 83 % 1019,7 hPa 0,0 l/m 5,8 km/h (2 Bft) W 270 7,6 C 10,4 C
27.06.2012 04:21 10,4 C 83 % 1019,7 hPa 0,0 l/m 5,4 km/h (1 Bft) W 270 7,6 C 10,4 C
27.06.2012 04:26 10,4 C 83 % 1019,5 hPa 0,0 l/m 2,5 km/h (1 Bft) SW 225 7,6 C 10,4 C
27.06.2012 04:31 10,4 C 83 % 1019,4 hPa 0,0 l/m 8,3 km/h (2 Bft) W-SW 247 7,6 C 10,4 C
27.06.2012 04:36 10,4 C 83 % 1019,4 hPa 0,0 l/m 5,8 km/h (2 Bft) W-SW 247 7,6 C 10,4 C
27.06.2012 04:41 10,3 C 83 % 1019,4 hPa 0,0 l/m 3,6 km/h (1 Bft) W-SW 247 7,5 C 10,3 C
27.06.2012 04:46 10,3 C 83 % 1019,4 hPa 0,0 l/m 9,4 km/h (2 Bft) W-SW 247 7,5 C 10,3 C
27.06.2012 04:51 10,3 C 84 % 1019,4 hPa 0,0 l/m 6,8 km/h (2 Bft) W-SW 247 7,7 C 10,3 C
27.06.2012 04:56 10,3 C 84 % 1019,4 hPa 0,0 l/m 8,3 km/h (2 Bft) W-SW 247 7,7 C 10,3 C
27.06.2012 05:01 10,2 C 84 % 1019,4 hPa 0,0 l/m 6,8 km/h (2 Bft) W 270 7,6 C 10,2 C
27.06.2012 05:06 10,2 C 84 % 1019,3 hPa 0,0 l/m 7,2 km/h (2 Bft) S-SW 202 7,6 C 10,2 C
27.06.2012 05:11 10,2 C 84 % 1019,1 hPa 0,0 l/m 4,0 km/h (1 Bft) W-SW 247 7,6 C 10,2 C
27.06.2012 05:16 10,3 C 84 % 1019,2 hPa 0,0 l/m 6,8 km/h (2 Bft) W-SW 247 7,7 C 10,3 C
27.06.2012 05:21 10,3 C 84 % 1019,2 hPa 0,0 l/m 4,7 km/h (1 Bft) W 270 7,7 C 10,3 C
27.06.2012 05:26 10,3 C 84 % 1019,3 hPa 0,0 l/m 10,8 km/h (2 Bft) W 270 7,7 C 10,3 C
27.06.2012 05:31 10,3 C 84 % 1019,3 hPa 0,0 l/m 4,0 km/h (1 Bft) W-SW 247 7,7 C 10,3 C
27.06.2012 05:36 10,4 C 84 % 1019,3 hPa 0,0 l/m 11,9 km/h (2 Bft) W-SW 247 7,8 C 10,4 C
27.06.2012 05:41 10,4 C 84 % 1019,3 hPa 0,0 l/m 4,7 km/h (1 Bft) W 270 7,8 C 10,4 C
27.06.2012 05:46 10,5 C 85 % 1019,3 hPa 0,0 l/m 8,6 km/h (2 Bft) W 270 8,1 C 10,5 C
27.06.2012 05:51 10,9 C 86 % 1019,3 hPa 0,0 l/m 6,5 km/h (2 Bft) W 270 8,7 C 10,9 C
27.06.2012 05:56 11,4 C 85 % 1019,0 hPa 0,0 l/m 7,6 km/h (2 Bft) SW 225 9,0 C 11,4 C
27.06.2012 06:01 11,9 C 84 % 1019,1 hPa 0,0 l/m 5,4 km/h (1 Bft) W 270 9,3 C 11,9 C
27.06.2012 06:06 12,2 C 82 % 1019,0 hPa 0,0 l/m 5,0 km/h (1 Bft) W 270 9,2 C 12,2 C
27.06.2012 06:11 12,2 C 81 % 1019,1 hPa 0,0 l/m 9,7 km/h (2 Bft) W-SW 247 9,0 C 12,2 C
27.06.2012 06:16 12,1 C 80 % 1019,1 hPa 0,0 l/m 5,0 km/h (1 Bft) W 270 8,8 C 12,1 C
27.06.2012 06:21 11,9 C 80 % 1019,1 hPa 0,0 l/m 4,0 km/h (1 Bft) W-SW 247 8,6 C 11,9 C
27.06.2012 06:26 11,9 C 81 % 1019,1 hPa 0,0 l/m 10,4 km/h (2 Bft) W 270 8,7 C 11,9 C
27.06.2012 06:31 11,9 C 80 % 1019,2 hPa 0,0 l/m 7,6 km/h (2 Bft) W 270 8,6 C 11,9 C
27.06.2012 06:36 12,1 C 81 % 1019,2 hPa 0,0 l/m 2,9 km/h (1 Bft) W 270 8,9 C 12,1 C
27.06.2012 06:41 12,3 C 81 % 1019,2 hPa 0,0 l/m 8,6 km/h (2 Bft) W-SW 247 9,1 C 12,3 C
27.06.2012 06:46 12,4 C 80 % 1019,1 hPa 0,0 l/m 5,8 km/h (2 Bft) W-SW 247 9,0 C 12,4 C
27.06.2012 06:51 12,3 C 80 % 1019,1 hPa 0,0 l/m 7,2 km/h (2 Bft) W 270 8,9 C 12,3 C
27.06.2012 06:56 12,3 C 80 % 1019,2 hPa 0,0 l/m 6,1 km/h (2 Bft) W-SW 247 8,9 C 12,3 C
27.06.2012 07:01 12,3 C 80 % 1019,2 hPa 0,0 l/m 2,9 km/h (1 Bft) W 270 8,9 C 12,3 C
27.06.2012 07:06 12,4 C 80 % 1019,2 hPa 0,0 l/m 7,9 km/h (2 Bft) W-SW 247 9,0 C 12,4 C
27.06.2012 07:11 12,5 C 80 % 1019,2 hPa 0,0 l/m 5,8 km/h (2 Bft) W-SW 247 9,1 C 12,5 C
27.06.2012 07:16 12,4 C 80 % 1019,2 hPa 0,0 l/m 2,5 km/h (1 Bft) W-SW 247 9,0 C 12,4 C
27.06.2012 07:21 12,4 C 80 % 1019,3 hPa 0,0 l/m 3,2 km/h (1 Bft) W-SW 247 9,0 C 12,4 C
27.06.2012 07:26 12,4 C 80 % 1019,3 hPa 0,0 l/m 0,0 km/h (0 Bft) W 270 9,0 C 12,4 C
27.06.2012 07:31 12,7 C 80 % 1019,3 hPa 0,0 l/m 3,2 km/h (1 Bft) W-SW 247 9,3 C 12,7 C
27.06.2012 07:36 12,8 C 80 % 1019,3 hPa 0,0 l/m 6,5 km/h (2 Bft) SW 225 9,4 C 12,8 C
27.06.2012 07:41 12,7 C 80 % 1019,4 hPa 0,0 l/m 1,8 km/h (1 Bft) W 270 9,3 C 12,7 C
27.06.2012 07:46 12,7 C 79 % 1019,4 hPa 0,0 l/m 4,3 km/h (1 Bft) W 270 9,2 C 12,7 C
27.06.2012 07:51 12,7 C 80 % 1019,4 hPa 0,0 l/m 3,2 km/h (1 Bft) W 270 9,3 C 12,7 C
27.06.2012 07:56 12,8 C 80 % 1019,4 hPa 0,0 l/m 5,0 km/h (1 Bft) W-NW 292 9,4 C 12,8 C
27.06.2012 08:01 12,9 C 79 % 1019,4 hPa 0,0 l/m 10,1 km/h (2 Bft) W-SW 247 9,3 C 12,9 C
27.06.2012 08:06 12,9 C 79 % 1019,4 hPa 0,0 l/m 6,5 km/h (2 Bft) W 270 9,3 C 12,9 C
27.06.2012 08:11 13,1 C 79 % 1019,4 hPa 0,0 l/m 2,2 km/h (1 Bft) W 270 9,5 C 13,1 C
27.06.2012 08:16 13,3 C 79 % 1019,3 hPa 0,0 l/m 3,2 km/h (1 Bft) W-NW 292 9,7 C 13,3 C
27.06.2012 08:21 13,4 C 79 % 1019,1 hPa 0,0 l/m 0,0 km/h (0 Bft) W-NW 292 9,8 C 13,4 C
27.06.2012 08:26 13,5 C 79 % 1019,2 hPa 0,0 l/m 5,8 km/h (2 Bft) W-SW 247 9,9 C 13,5 C
27.06.2012 08:31 13,5 C 79 % 1019,2 hPa 0,0 l/m 6,5 km/h (2 Bft) NW 315 9,9 C 13,5 C
27.06.2012 08:36 13,6 C 79 % 1019,2 hPa 0,0 l/m 6,1 km/h (2 Bft) W-NW 292 10,0 C 13,6 C
27.06.2012 08:41 13,6 C 78 % 1019,2 hPa 0,0 l/m 9,0 km/h (2 Bft) NW 315 9,8 C 13,6 C
27.06.2012 08:46 13,8 C 78 % 1019,2 hPa 0,0 l/m 2,5 km/h (1 Bft) W 270 10,0 C 13,8 C
27.06.2012 08:51 13,9 C 78 % 1019,2 hPa 0,0 l/m 7,9 km/h (2 Bft) W-SW 247 10,1 C 13,9 C
27.06.2012 08:56 14,1 C 79 % 1019,0 hPa 0,0 l/m 8,6 km/h (2 Bft) W 270 10,5 C 14,1 C
27.06.2012 09:01 14,4 C 78 % 1019,1 hPa 0,0 l/m 6,1 km/h (2 Bft) W-NW 292 10,6 C 14,4 C
27.06.2012 09:06 14,5 C 78 % 1019,1 hPa 0,0 l/m 5,8 km/h (2 Bft) W-SW 247 10,7 C 14,5 C
27.06.2012 09:11 14,9 C 77 % 1019,0 hPa 0,0 l/m 6,5 km/h (2 Bft) W 270 10,9 C 14,9 C
27.06.2012 09:16 14,9 C 77 % 1019,0 hPa 0,0 l/m 3,6 km/h (1 Bft) SW 225 10,9 C 14,9 C
27.06.2012 09:21 14,9 C 76 % 1019,0 hPa 0,0 l/m 8,6 km/h (2 Bft) W 270 10,7 C 14,9 C
27.06.2012 09:26 14,9 C 76 % 1019,0 hPa 0,0 l/m 3,6 km/h (1 Bft) W-SW 247 10,7 C 14,9 C
27.06.2012 09:31 14,9 C 76 % 1019,1 hPa 0,0 l/m 4,7 km/h (1 Bft) W-SW 247 10,7 C 14,9 C
27.06.2012 09:36 14,9 C 76 % 1019,0 hPa 0,0 l/m 4,7 km/h (1 Bft) NW 315 10,7 C 14,9 C
27.06.2012 09:41 14,9 C 76 % 1019,0 hPa 0,0 l/m 5,0 km/h (1 Bft) W-NW 292 10,7 C 14,9 C
27.06.2012 09:46 14,9 C 76 % 1019,0 hPa 0,0 l/m 3,2 km/h (1 Bft) W 270 10,7 C 14,9 C
27.06.2012 09:51 15,0 C 76 % 1018,9 hPa 0,0 l/m 2,9 km/h (1 Bft) SW 225 10,8 C 15,0 C
27.06.2012 09:56 15,1 C 75 % 1018,9 hPa 0,0 l/m 7,9 km/h (2 Bft) W-NW 292 10,7 C 15,1 C
27.06.2012 10:01 15,3 C 75 % 1019,0 hPa 0,0 l/m 8,3 km/h (2 Bft) W-SW 247 10,9 C 15,3 C
27.06.2012 10:06 15,3 C 75 % 1019,0 hPa 0,0 l/m 1,8 km/h (1 Bft) W 270 10,9 C 15,3 C
27.06.2012 10:11 15,5 C 75 % 1018,8 hPa 0,0 l/m 7,2 km/h (2 Bft) W-SW 247 11,1 C 15,5 C
27.06.2012 10:16 15,8 C 75 % 1018,9 hPa 0,0 l/m 5,8 km/h (2 Bft) NW 315 11,4 C 15,8 C
27.06.2012 10:21 16,0 C 74 % 1018,9 hPa 0,0 l/m 4,0 km/h (1 Bft) W-NW 292 11,4 C 16,0 C
27.06.2012 10:26 16,3 C 73 % 1018,9 hPa 0,0 l/m 10,8 km/h (2 Bft) W-NW 292 11,4 C 16,3 C
27.06.2012 10:31 16,5 C 71 % 1018,9 hPa 0,0 l/m 4,0 km/h (1 Bft) NW 315 11,2 C 16,5 C
27.06.2012 10:36 16,7 C 71 % 1018,7 hPa 0,0 l/m 11,9 km/h (2 Bft) W 270 11,4 C 16,7 C
27.06.2012 10:41 16,9 C 70 % 1018,7 hPa 0,0 l/m 12,2 km/h (2 Bft) SW 225 11,4 C 16,9 C
27.06.2012 10:46 17,0 C 71 % 1018,7 hPa 0,0 l/m 2,5 km/h (1 Bft) S-SW 202 11,7 C 17,0 C
27.06.2012 10:51 17,2 C 70 % 1018,8 hPa 0,0 l/m 8,6 km/h (2 Bft) W 270 11,7 C 17,2 C
27.06.2012 10:56 17,2 C 69 % 1018,7 hPa 0,0 l/m 8,6 km/h (2 Bft) W 270 11,5 C 17,2 C
27.06.2012 11:01 17,2 C 70 % 1018,7 hPa 0,0 l/m 18,0 km/h (3 Bft) NW 315 11,7 C 17,2 C
27.06.2012 11:06 17,2 C 69 % 1018,7 hPa 0,0 l/m 14,0 km/h (3 Bft) W-SW 247 11,5 C 17,2 C
27.06.2012 11:11 17,1 C 69 % 1018,7 hPa 0,0 l/m 5,0 km/h (1 Bft) W 270 11,4 C 17,1 C
27.06.2012 11:16 17,0 C 69 % 1018,7 hPa 0,0 l/m 7,2 km/h (2 Bft) W-NW 292 11,3 C 17,0 C
27.06.2012 11:21 16,9 C 69 % 1018,7 hPa 0,0 l/m 10,8 km/h (2 Bft) W-NW 292 11,2 C 16,9 C
27.06.2012 11:26 16,8 C 69 % 1018,6 hPa 0,0 l/m 3,6 km/h (1 Bft) W-SW 247 11,1 C 16,8 C
27.06.2012 11:31 16,8 C 70 % 1018,6 hPa 0,0 l/m 9,4 km/h (2 Bft) W-SW 247 11,3 C 16,8 C
27.06.2012 11:36 16,8 C 70 % 1018,6 hPa 0,0 l/m 12,2 km/h (2 Bft) W-SW 247 11,3 C 16,8 C
27.06.2012 11:41 16,8 C 70 % 1018,5 hPa 0,0 l/m 4,0 km/h (1 Bft) W-SW 247 11,3 C 16,8 C
27.06.2012 11:46 16,8 C 71 % 1018,5 hPa 0,0 l/m 4,3 km/h (1 Bft) W 270 11,5 C 16,8 C
27.06.2012 11:51 16,8 C 71 % 1018,6 hPa 0,0 l/m 5,0 km/h (1 Bft) W-SW 247 11,5 C 16,8 C
27.06.2012 11:56 16,7 C 71 % 1018,6 hPa 0,0 l/m 8,6 km/h (2 Bft) W 270 11,4 C 16,7 C
27.06.2012 12:01 16,7 C 71 % 1018,5 hPa 0,0 l/m 11,2 km/h (2 Bft) W 270 11,4 C 16,7 C
27.06.2012 12:06 16,6 C 71 % 1018,5 hPa 0,0 l/m 5,8 km/h (2 Bft) W-NW 292 11,3 C 16,6 C
27.06.2012 12:11 16,5 C 71 % 1018,3 hPa 0,0 l/m 6,5 km/h (2 Bft) W-SW 247 11,2 C 16,5 C
27.06.2012 12:16 16,5 C 73 % 1018,4 hPa 0,0 l/m 4,7 km/h (1 Bft) W 270 11,6 C 16,5 C
27.06.2012 12:21 16,5 C 74 % 1018,3 hPa 0,0 l/m 10,1 km/h (2 Bft) W-SW 247 11,8 C 16,5 C
27.06.2012 12:26 16,4 C 74 % 1018,4 hPa 0,0 l/m 4,0 km/h (1 Bft) W 270 11,8 C 16,4 C
27.06.2012 12:31 16,4 C 75 % 1018,2 hPa 0,0 l/m 5,8 km/h (2 Bft) W-SW 247 12,0 C 16,4 C
27.06.2012 12:36 16,3 C 75 % 1018,2 hPa 0,0 l/m 7,6 km/h (2 Bft) W 270 11,9 C 16,3 C
27.06.2012 12:41 16,2 C 76 % 1018,3 hPa 0,0 l/m 3,2 km/h (1 Bft) W-SW 247 12,0 C 16,2 C
27.06.2012 12:46 16,1 C 76 % 1018,1 hPa 0,0 l/m 6,1 km/h (2 Bft) S-SW 202 11,9 C 16,1 C
27.06.2012 12:51 16,1 C 76 % 1018,2 hPa 0,0 l/m 10,8 km/h (2 Bft) W 270 11,9 C 16,1 C
27.06.2012 12:56 16,1 C 76 % 1018,2 hPa 0,0 l/m 5,4 km/h (1 Bft) W 270 11,9 C 16,1 C
27.06.2012 13:01 16,1 C 76 % 1018,1 hPa 0,0 l/m 5,4 km/h (1 Bft) SW 225 11,9 C 16,1 C
27.06.2012 13:06 16,2 C 76 % 1018,1 hPa 0,0 l/m 3,2 km/h (1 Bft) W-NW 292 12,0 C 16,2 C
27.06.2012 13:11 16,2 C 76 % 1018,2 hPa 0,0 l/m 9,7 km/h (2 Bft) W-SW 247 12,0 C 16,2 C
27.06.2012 13:16 16,2 C 76 % 1018,0 hPa 0,0 l/m 6,5 km/h (2 Bft) W 270 12,0 C 16,2 C
27.06.2012 13:21 16,2 C 76 % 1018,1 hPa 0,0 l/m 3,2 km/h (1 Bft) SW 225 12,0 C 16,2 C
27.06.2012 13:26 16,3 C 76 % 1018,0 hPa 0,0 l/m 5,8 km/h (2 Bft) W 270 12,1 C 16,3 C
27.06.2012 13:31 16,2 C 77 % 1018,1 hPa 0,0 l/m 9,7 km/h (2 Bft) S-SO 157 12,2 C 16,2 C
27.06.2012 13:36 16,2 C 78 % 1017,9 hPa 0,0 l/m 4,0 km/h (1 Bft) S-SO 157 12,4 C 16,2 C
27.06.2012 13:41 16,1 C 79 % 1017,9 hPa 0,0 l/m 4,3 km/h (1 Bft) SW 225 12,5 C 16,1 C
27.06.2012 13:46 16,2 C 79 % 1017,9 hPa 0,0 l/m 11,9 km/h (2 Bft) S-SW 202 12,6 C 16,2 C
27.06.2012 13:51 16,2 C 80 % 1017,8 hPa 0,0 l/m 4,7 km/h (1 Bft) S 180 12,7 C 16,2 C
27.06.2012 13:56 16,2 C 80 % 1017,7 hPa 0,0 l/m 5,8 km/h (2 Bft) SW 225 12,7 C 16,2 C
27.06.2012 14:01 16,3 C 80 % 1017,6 hPa 0,0 l/m 2,2 km/h (1 Bft) W-SW 247 12,8 C 16,3 C
27.06.2012 14:06 16,3 C 80 % 1017,6 hPa 0,0 l/m 3,6 km/h (1 Bft) SW 225 12,8 C 16,3 C
27.06.2012 14:11 16,3 C 80 % 1017,6 hPa 0,0 l/m 9,4 km/h (2 Bft) SW 225 12,8 C 16,3 C
27.06.2012 14:16 16,4 C 79 % 1017,5 hPa 0,0 l/m 4,0 km/h (1 Bft) W-SW 247 12,7 C 16,4 C
27.06.2012 14:21 16,4 C 79 % 1017,4 hPa 0,0 l/m 1,4 km/h (1 Bft) S-SW 202 12,7 C 16,4 C
27.06.2012 14:26 16,4 C 80 % 1017,4 hPa 0,0 l/m 5,8 km/h (2 Bft) SW 225 12,9 C 16,4 C
27.06.2012 14:31 16,4 C 80 % 1017,2 hPa 0,0 l/m 3,6 km/h (1 Bft) S-SW 202 12,9 C 16,4 C
27.06.2012 14:36 16,4 C 80 % 1017,3 hPa 0,0 l/m 7,6 km/h (2 Bft) SW 225 12,9 C 16,4 C
27.06.2012 14:41 16,3 C 80 % 1017,3 hPa 0,0 l/m 4,7 km/h (1 Bft) W-SW 247 12,8 C 16,3 C
27.06.2012 14:46 16,2 C 81 % 1017,3 hPa 0,0 l/m 2,5 km/h (1 Bft) W-SW 247 12,9 C 16,2 C
27.06.2012 14:51 16,2 C 81 % 1017,3 hPa 0,0 l/m 6,1 km/h (2 Bft) S-SW 202 12,9 C 16,2 C
27.06.2012 14:56 16,1 C 81 % 1017,4 hPa 0,0 l/m 4,0 km/h (1 Bft) SW 225 12,8 C 16,1 C
27.06.2012 15:01 16,1 C 81 % 1017,3 hPa 0,0 l/m 4,7 km/h (1 Bft) S-SW 202 12,8 C 16,1 C
27.06.2012 15:06 15,9 C 82 % 1017,4 hPa 0,5 l/m 6,5 km/h (2 Bft) W-SW 247 12,8 C 15,9 C
27.06.2012 15:11 15,9 C 82 % 1017,3 hPa 0,0 l/m 2,2 km/h (1 Bft) W-SW 247 12,8 C 15,9 C
27.06.2012 15:16 15,9 C 82 % 1017,2 hPa 0,0 l/m 2,2 km/h (1 Bft) W-SW 247 12,8 C 15,9 C
27.06.2012 15:21 15,9 C 83 % 1017,2 hPa 0,0 l/m 2,5 km/h (1 Bft) S-SW 202 13,0 C 15,9 C
27.06.2012 15:26 15,9 C 83 % 1017,2 hPa 0,0 l/m 4,0 km/h (1 Bft) W 270 13,0 C 15,9 C
27.06.2012 15:31 15,9 C 83 % 1017,2 hPa 0,0 l/m 0,0 km/h (0 Bft) S-SW 202 13,0 C 15,9 C
27.06.2012 15:36 15,9 C 83 % 1017,1 hPa 0,0 l/m 0,0 km/h (0 Bft) SW 225 13,0 C 15,9 C
27.06.2012 15:41 15,9 C 84 % 1017,1 hPa 0,0 l/m 6,1 km/h (2 Bft) S-SW 202 13,2 C 15,9 C
27.06.2012 15:46 15,9 C 84 % 1017,2 hPa 0,5 l/m 2,5 km/h (1 Bft) SW 225 13,2 C 15,9 C
27.06.2012 15:51 15,8 C 84 % 1017,1 hPa 0,0 l/m 3,2 km/h (1 Bft) S-SO 157 13,1 C 15,8 C
27.06.2012 15:56 15,8 C 84 % 1017,0 hPa 0,0 l/m 2,5 km/h (1 Bft) SO 135 13,1 C 15,8 C
27.06.2012 16:01 15,8 C 84 % 1017,0 hPa 0,0 l/m 1,1 km/h (1 Bft) S-SW 202 13,1 C 15,8 C
27.06.2012 16:06 15,6 C 84 % 1017,1 hPa 0,0 l/m 4,7 km/h (1 Bft) S-SW 202 12,9 C 15,6 C
27.06.2012 16:11 15,6 C 84 % 1016,9 hPa 0,0 l/m 4,7 km/h (1 Bft) SW 225 12,9 C 15,6 C
27.06.2012 16:16 15,6 C 84 % 1016,9 hPa 0,5 l/m 0,0 km/h (0 Bft) S-SW 202 12,9 C 15,6 C
27.06.2012 16:21 15,6 C 84 % 1016,8 hPa 0,0 l/m 0,0 km/h (0 Bft) S 180 12,9 C 15,6 C
27.06.2012 16:26 15,6 C 84 % 1016,7 hPa 0,0 l/m 3,2 km/h (1 Bft) S-SO 157 12,9 C 15,6 C
27.06.2012 16:31 15,6 C 85 % 1016,7 hPa 0,5 l/m 2,2 km/h (1 Bft) S-SO 157 13,1 C 15,6 C
27.06.2012 16:36 15,6 C 85 % 1016,6 hPa 0,0 l/m 0,0 km/h (0 Bft) S-SO 157 13,1 C 15,6 C
27.06.2012 16:41 15,6 C 85 % 1016,7 hPa 0,0 l/m 0,0 km/h (0 Bft) S 180 13,1 C 15,6 C
27.06.2012 16:46 15,6 C 85 % 1016,5 hPa 0,0 l/m 0,0 km/h (0 Bft) SO 135 13,1 C 15,6 C
27.06.2012 16:51 15,6 C 85 % 1016,5 hPa 0,0 l/m 0,0 km/h (0 Bft) S 180 13,1 C 15,6 C
27.06.2012 16:56 15,6 C 85 % 1016,4 hPa 0,0 l/m 0,0 km/h (0 Bft) S-SO 157 13,1 C 15,6 C
27.06.2012 17:01 15,5 C 85 % 1016,3 hPa 0,0 l/m 0,0 km/h (0 Bft) S-SO 157 13,0 C 15,5 C
27.06.2012 17:06 15,5 C 86 % 1016,3 hPa 0,0 l/m 0,0 km/h (0 Bft) S-SO 157 13,2 C 15,5 C
27.06.2012 17:11 15,5 C 86 % 1016,2 hPa 0,0 l/m 0,0 km/h (0 Bft) S-SO 157 13,2 C 15,5 C
27.06.2012 17:16 15,5 C 86 % 1016,1 hPa 0,0 l/m 0,0 km/h (0 Bft) S-SO 157 13,2 C 15,5 C
27.06.2012 17:21 15,5 C 86 % 1016,2 hPa 0,0 l/m 2,5 km/h (1 Bft) S-SO 157 13,2 C 15,5 C
27.06.2012 17:26 15,6 C 86 % 1016,1 hPa 0,0 l/m 0,0 km/h (0 Bft) S-SW 202 13,3 C 15,6 C
27.06.2012 17:31 15,6 C 86 % 1016,1 hPa 0,0 l/m 2,2 km/h (1 Bft) S-SO 157 13,3 C 15,6 C
27.06.2012 17:36 15,6 C 86 % 1016,1 hPa 0,0 l/m 2,2 km/h (1 Bft) S 180 13,3 C 15,6 C
27.06.2012 17:41 15,6 C 86 % 1016,1 hPa 0,0 l/m 2,5 km/h (1 Bft) SW 225 13,3 C 15,6 C
27.06.2012 17:46 15,6 C 86 % 1015,8 hPa 0,5 l/m 0,0 km/h (0 Bft) SO 135 13,3 C 15,6 C
27.06.2012 17:51 15,6 C 86 % 1015,8 hPa 0,0 l/m 2,2 km/h (1 Bft) SO 135 13,3 C 15,6 C
27.06.2012 17:56 15,6 C 86 % 1015,8 hPa 0,0 l/m 0,0 km/h (0 Bft) S-SO 157 13,3 C 15,6 C
27.06.2012 18:01 15,6 C 86 % 1015,8 hPa 0,0 l/m 1,1 km/h (1 Bft) SO 135 13,3 C 15,6 C
27.06.2012 18:06 15,6 C 86 % 1016,0 hPa 0,0 l/m 0,0 km/h (0 Bft) S 180 13,3 C 15,6 C
27.06.2012 18:11 15,6 C 86 % 1015,8 hPa 0,0 l/m 0,0 km/h (0 Bft) SO 135 13,3 C 15,6 C
27.06.2012 18:16 15,6 C 87 % 1015,8 hPa 0,0 l/m 0,0 km/h (0 Bft) S-SW 202 13,4 C 15,6 C
27.06.2012 18:21 15,6 C 87 % 1015,7 hPa 0,0 l/m 0,0 km/h (0 Bft) S-SO 157 13,4 C 15,6 C
27.06.2012 18:26 15,6 C 87 % 1015,8 hPa 0,0 l/m 0,0 km/h (0 Bft) S-SO 157 13,4 C 15,6 C
27.06.2012 18:31 15,6 C 87 % 1015,7 hPa 0,0 l/m 0,0 km/h (0 Bft) S-SO 157 13,4 C 15,6 C
27.06.2012 18:36 15,6 C 87 % 1015,6 hPa 0,0 l/m 0,0 km/h (0 Bft) S-SO 157 13,4 C 15,6 C
27.06.2012 18:41 15,6 C 87 % 1015,7 hPa 0,0 l/m 0,0 km/h (0 Bft) O-SO 112 13,4 C 15,6 C
27.06.2012 18:46 15,6 C 87 % 1015,6 hPa 0,0 l/m 0,0 km/h (0 Bft) O-SO 112 13,4 C 15,6 C
27.06.2012 18:51 15,6 C 87 % 1015,6 hPa 0,0 l/m 1,4 km/h (1 Bft) O-SO 112 13,4 C 15,6 C
27.06.2012 18:56 15,6 C 87 % 1015,6 hPa 0,0 l/m 0,0 km/h (0 Bft) SO 135 13,4 C 15,6 C
27.06.2012 19:01 15,5 C 87 % 1015,5 hPa 0,0 l/m 0,0 km/h (0 Bft) O-SO 112 13,3 C 15,5 C
27.06.2012 19:06 15,5 C 87 % 1015,6 hPa 0,0 l/m 0,0 km/h (0 Bft) O-SO 112 13,3 C 15,5 C
27.06.2012 19:11 15,5 C 87 % 1015,6 hPa 0,0 l/m 0,0 km/h (0 Bft) SO 135 13,3 C 15,5 C
27.06.2012 19:16 15,5 C 87 % 1015,6 hPa 0,0 l/m 0,0 km/h (0 Bft) SO 135 13,3 C 15,5 C
27.06.2012 19:21 15,5 C 87 % 1015,7 hPa 0,0 l/m 0,0 km/h (0 Bft) SO 135 13,3 C 15,5 C
27.06.2012 19:26 15,4 C 87 % 1015,4 hPa 0,0 l/m 0,0 km/h (0 Bft) O 90 13,2 C 15,4 C
27.06.2012 19:31 15,4 C 87 % 1015,4 hPa 0,0 l/m 0,0 km/h (0 Bft) O-SO 112 13,2 C 15,4 C
27.06.2012 19:36 15,5 C 87 % 1015,5 hPa 0,0 l/m 0,0 km/h (0 Bft) O-SO 112 13,3 C 15,5 C
27.06.2012 19:41 15,5 C 87 % 1015,5 hPa 0,0 l/m 0,0 km/h (0 Bft) O-SO 112 13,3 C 15,5 C
27.06.2012 19:46 15,6 C 87 % 1015,4 hPa 0,0 l/m 0,0 km/h (0 Bft) O-SO 112 13,4 C 15,6 C
27.06.2012 19:51 15,6 C 87 % 1015,6 hPa 0,0 l/m 0,0 km/h (0 Bft) O-SO 112 13,4 C 15,6 C
27.06.2012 19:56 15,6 C 87 % 1015,6 hPa 0,0 l/m 0,0 km/h (0 Bft) SO 135 13,4 C 15,6 C
27.06.2012 20:01 15,6 C 87 % 1015,6 hPa 0,0 l/m 0,0 km/h (0 Bft) O-SO 112 13,4 C 15,6 C
27.06.2012 20:06 15,7 C 87 % 1015,5 hPa 0,0 l/m 0,0 km/h (0 Bft) O-SO 112 13,5 C 15,7 C
27.06.2012 20:11 15,6 C 87 % 1015,4 hPa 0,0 l/m 0,0 km/h (0 Bft) O-SO 112 13,4 C 15,6 C
27.06.2012 20:16 15,6 C 87 % 1015,5 hPa 0,0 l/m 0,0 km/h (0 Bft) O-SO 112 13,4 C 15,6 C
27.06.2012 20:21 15,6 C 87 % 1015,3 hPa 0,0 l/m 0,0 km/h (0 Bft) O-SO 112 13,4 C 15,6 C
27.06.2012 20:26 15,6 C 87 % 1015,4 hPa 0,0 l/m 0,0 km/h (0 Bft) O-SO 112 13,4 C 15,6 C
27.06.2012 20:31 15,6 C 87 % 1015,2 hPa 0,0 l/m 0,0 km/h (0 Bft) O-SO 112 13,4 C 15,6 C
27.06.2012 20:36 15,6 C 87 % 1015,2 hPa 0,0 l/m 0,0 km/h (0 Bft) O-SO 112 13,4 C 15,6 C
27.06.2012 20:41 15,5 C 87 % 1015,3 hPa 0,0 l/m 0,0 km/h (0 Bft) SO 135 13,3 C 15,5 C
27.06.2012 20:46 15,6 C 87 % 1015,4 hPa 0,0 l/m 0,0 km/h (0 Bft) SO 135 13,4 C 15,6 C
27.06.2012 20:51 15,6 C 87 % 1015,4 hPa 0,0 l/m 0,0 km/h (0 Bft) SO 135 13,4 C 15,6 C
27.06.2012 20:56 15,6 C 87 % 1015,3 hPa 0,0 l/m 0,0 km/h (0 Bft) SO 135 13,4 C 15,6 C
27.06.2012 21:01 15,6 C 87 % 1015,3 hPa 0,0 l/m 0,0 km/h (0 Bft) SO 135 13,4 C 15,6 C
27.06.2012 21:06 15,6 C 87 % 1015,2 hPa 0,0 l/m 0,0 km/h (0 Bft) S-SO 157 13,4 C 15,6 C
27.06.2012 21:11 15,6 C 87 % 1015,2 hPa 0,0 l/m 0,0 km/h (0 Bft) S-SO 157 13,4 C 15,6 C
27.06.2012 21:16 15,6 C 87 % 1015,1 hPa 0,0 l/m 0,0 km/h (0 Bft) S-SO 157 13,4 C 15,6 C
27.06.2012 21:21 15,6 C 87 % 1015,3 hPa 0,0 l/m 0,0 km/h (0 Bft) S-SO 157 13,4 C 15,6 C
27.06.2012 21:26 15,6 C 87 % 1015,1 hPa 0,0 l/m 0,0 km/h (0 Bft) S-SO 157 13,4 C 15,6 C
27.06.2012 21:31 15,6 C 87 % 1015,1 hPa 0,0 l/m 0,0 km/h (0 Bft) S-SO 157 13,4 C 15,6 C
27.06.2012 21:36 15,6 C 87 % 1015,1 hPa 0,0 l/m 0,0 km/h (0 Bft) S-SO 157 13,4 C 15,6 C
27.06.2012 21:41 15,6 C 87 % 1015,0 hPa 0,0 l/m 0,0 km/h (0 Bft) SO 135 13,4 C 15,6 C
27.06.2012 21:46 15,6 C 87 % 1015,1 hPa 0,0 l/m 0,0 km/h (0 Bft) SO 135 13,4 C 15,6 C
27.06.2012 21:51 15,6 C 87 % 1015,2 hPa 0,0 l/m 0,0 km/h (0 Bft) SW 225 13,4 C 15,6 C
27.06.2012 21:56 15,6 C 87 % 1015,2 hPa 0,0 l/m 0,0 km/h (0 Bft) S-SW 202 13,4 C 15,6 C
27.06.2012 22:01 15,6 C 87 % 1015,2 hPa 0,0 l/m 1,8 km/h (1 Bft) S 180 13,4 C 15,6 C
27.06.2012 22:06 15,5 C 88 % 1015,1 hPa 0,0 l/m 1,8 km/h (1 Bft) S 180 13,5 C 15,5 C
27.06.2012 22:11 15,5 C 88 % 1015,1 hPa 0,0 l/m 0,0 km/h (0 Bft) S 180 13,5 C 15,5 C
27.06.2012 22:16 15,5 C 88 % 1015,2 hPa 0,0 l/m 2,2 km/h (1 Bft) S-SO 157 13,5 C 15,5 C
27.06.2012 22:21 15,5 C 88 % 1015,1 hPa 0,0 l/m 1,4 km/h (1 Bft) S-SO 157 13,5 C 15,5 C
27.06.2012 22:26 15,5 C 88 % 1015,1 hPa 0,0 l/m 0,0 km/h (0 Bft) S-SO 157 13,5 C 15,5 C
27.06.2012 22:31 15,5 C 88 % 1015,1 hPa 0,0 l/m 0,0 km/h (0 Bft) S-SO 157 13,5 C 15,5 C
27.06.2012 22:36 15,5 C 88 % 1015,2 hPa 0,0 l/m 0,0 km/h (0 Bft) S 180 13,5 C 15,5 C
27.06.2012 22:41 15,5 C 88 % 1015,0 hPa 0,0 l/m 0,0 km/h (0 Bft) S-SO 157 13,5 C 15,5 C
27.06.2012 22:46 15,4 C 88 % 1015,0 hPa 0,0 l/m 0,0 km/h (0 Bft) S-SO 157 13,4 C 15,4 C
27.06.2012 22:51 15,4 C 88 % 1014,9 hPa 0,0 l/m 1,1 km/h (1 Bft) S-SO 157 13,4 C 15,4 C
27.06.2012 22:56 15,4 C 88 % 1014,9 hPa 0,0 l/m 0,0 km/h (0 Bft) S-SO 157 13,4 C 15,4 C
27.06.2012 23:01 15,5 C 89 % 1014,9 hPa 0,0 l/m 1,4 km/h (1 Bft) S-SO 157 13,7 C 15,5 C
27.06.2012 23:06 15,4 C 89 % 1014,8 hPa 0,0 l/m 0,0 km/h (0 Bft) S-SO 157 13,6 C 15,4 C
27.06.2012 23:11 15,4 C 89 % 1014,8 hPa 0,0 l/m 1,1 km/h (1 Bft) S 180 13,6 C 15,4 C
27.06.2012 23:16 15,4 C 89 % 1014,8 hPa 0,0 l/m 0,0 km/h (0 Bft) S 180 13,6 C 15,4 C
27.06.2012 23:21 15,4 C 89 % 1014,6 hPa 0,0 l/m 2,5 km/h (1 Bft) S 180 13,6 C 15,4 C
27.06.2012 23:26 15,4 C 89 % 1014,7 hPa 0,0 l/m 2,5 km/h (1 Bft) S-SW 202 13,6 C 15,4 C
27.06.2012 23:31 15,4 C 89 % 1014,6 hPa 0,0 l/m 2,9 km/h (1 Bft) S-SO 157 13,6 C 15,4 C
27.06.2012 23:36 15,4 C 89 % 1014,7 hPa 0,0 l/m 3,2 km/h (1 Bft) S 180 13,6 C 15,4 C
27.06.2012 23:41 15,4 C 89 % 1014,6 hPa 0,0 l/m 1,4 km/h (1 Bft) S 180 13,6 C 15,4 C
27.06.2012 23:46 15,4 C 89 % 1014,6 hPa 0,0 l/m 0,0 km/h (0 Bft) S-SO 157 13,6 C 15,4 C
27.06.2012 23:51 15,4 C 89 % 1014,6 hPa 0,0 l/m 2,2 km/h (1 Bft) SO 135 13,6 C 15,4 C
27.06.2012 23:56 15,4 C 89 % 1014,6 hPa 0,0 l/m 0,0 km/h (0 Bft) SO 135 13,6 C 15,4 C
_ Min-Zeit 05:01 10:56 23:21 - 02:11 - - 04:41 05:01
Minimum _ 10,2 C 69 % 1014,6 hPa - 0,0 km/h (0 Bft) - - 7,5 C 10,2 C
_ Max-Zeit 10:51 23:01 01:06 15:06 11:01 - - 23:01 10:51
Maximum _ 17,2 C 89 % 1020,3 hPa 0,5 l/m 18,0 km/h
NW (3 Bft)
- - 13,7 C 17,2 C
Durchschnitt _ 14,3 C 81 % 1017,8 hPa #2,6 l/m 3,9 km/h (1 Bft) W-SW - 11,1 C 14,3 C
(c) by David Heller